sensor_id;sensor_type;location;lat;lon;timestamp;temperature;humidity
2893;DHT22;1456;51.840;12.184;2022-08-11T00:01:30;17.60;99.90
2893;DHT22;1456;51.840;12.184;2022-08-11T00:03:58;17.60;99.90
2893;DHT22;1456;51.840;12.184;2022-08-11T00:06:30;17.50;99.90
2893;DHT22;1456;51.840;12.184;2022-08-11T00:08:56;17.50;99.90
2893;DHT22;1456;51.840;12.184;2022-08-11T00:11:36;17.60;99.90
2893;DHT22;1456;51.840;12.184;2022-08-11T00:14:03;17.60;99.90
2893;DHT22;1456;51.840;12.184;2022-08-11T00:16:29;17.60;99.90
2893;DHT22;1456;51.840;12.184;2022-08-11T00:18:57;17.60;99.90
2893;DHT22;1456;51.840;12.184;2022-08-11T00:21:25;17.60;99.90
2893;DHT22;1456;51.840;12.184;2022-08-11T00:23:58;17.60;99.90
2893;DHT22;1456;51.840;12.184;2022-08-11T00:26:26;17.60;99.90
2893;DHT22;1456;51.840;12.184;2022-08-11T00:28:52;17.60;99.90
2893;DHT22;1456;51.840;12.184;2022-08-11T00:31:31;17.60;99.90
2893;DHT22;1456;51.840;12.184;2022-08-11T00:34:00;17.60;99.90
2893;DHT22;1456;51.840;12.184;2022-08-11T00:36:29;17.60;99.90
2893;DHT22;1456;51.840;12.184;2022-08-11T00:39:05;17.60;99.90
2893;DHT22;1456;51.840;12.184;2022-08-11T01:24:37;16.90;99.90
2893;DHT22;1456;51.840;12.184;2022-08-11T01:42:29;16.70;99.90
2893;DHT22;1456;51.840;12.184;2022-08-11T01:48:07;16.60;99.90
2893;DHT22;1456;51.840;12.184;2022-08-11T02:14:12;16.10;99.90
2893;DHT22;1456;51.840;12.184;2022-08-11T02:19:48;16.10;99.90
2893;DHT22;1456;51.840;12.184;2022-08-11T02:22:41;16.00;99.90
2893;DHT22;1456;51.840;12.184;2022-08-11T02:28:24;15.90;99.90
2893;DHT22;1456;51.840;12.184;2022-08-11T02:34:23;15.70;99.90
2893;DHT22;1456;51.840;12.184;2022-08-11T02:39:59;15.50;99.90
2893;DHT22;1456;51.840;12.184;2022-08-11T02:54:02;15.00;99.90
2893;DHT22;1456;51.840;12.184;2022-08-11T02:56:42;15.10;99.90
2893;DHT22;1456;51.840;12.184;2022-08-11T03:02:11;15.00;99.90
2893;DHT22;1456;51.840;12.184;2022-08-11T03:12:56;15.10;99.90
2893;DHT22;1456;51.840;12.184;2022-08-11T03:16:10;15.00;99.90
2893;DHT22;1456;51.840;12.184;2022-08-11T03:19:27;15.10;99.90
2893;DHT22;1456;51.840;12.184;2022-08-11T03:30:26;14.90;99.90
2893;DHT22;1456;51.840;12.184;2022-08-11T03:36:22;14.70;99.90
2893;DHT22;1456;51.840;12.184;2022-08-11T03:41:56;14.70;99.90
2893;DHT22;1456;51.840;12.184;2022-08-11T03:44:38;14.60;99.90
2893;DHT22;1456;51.840;12.184;2022-08-11T03:47:41;14.70;99.90
2893;DHT22;1456;51.840;12.184;2022-08-11T03:53:16;14.60;99.90
2893;DHT22;1456;51.840;12.184;2022-08-11T04:31:07;15.00;99.90
2893;DHT22;1456;51.840;12.184;2022-08-11T04:34:04;15.10;99.90
2893;DHT22;1456;51.840;12.184;2022-08-11T04:49:23;15.60;99.90
2893;DHT22;1456;51.840;12.184;2022-08-11T04:56:01;15.80;99.90
2893;DHT22;1456;51.840;12.184;2022-08-11T04:59:02;16.00;99.90
2893;DHT22;1456;51.840;12.184;2022-08-11T05:05:02;16.40;99.90
2893;DHT22;1456;51.840;12.184;2022-08-11T05:13:32;17.00;99.90
2893;DHT22;1456;51.840;12.184;2022-08-11T05:16:20;17.10;99.90
2893;DHT22;1456;51.840;12.184;2022-08-11T05:19:18;17.20;99.90
2893;DHT22;1456;51.840;12.184;2022-08-11T05:22:03;17.50;99.90
2893;DHT22;1456;51.840;12.184;2022-08-11T05:25:00;17.70;99.90
2893;DHT22;1456;51.840;12.184;2022-08-11T05:28:10;17.90;99.90
2893;DHT22;1456;51.840;12.184;2022-08-11T05:31:09;18.10;99.90
2893;DHT22;1456;51.840;12.184;2022-08-11T05:34:01;18.30;99.90
2893;DHT22;1456;51.840;12.184;2022-08-11T05:36:52;18.40;99.90
2893;DHT22;1456;51.840;12.184;2022-08-11T05:39:23;18.60;99.90
2893;DHT22;1456;51.840;12.184;2022-08-11T05:42:08;18.80;99.90
2893;DHT22;1456;51.840;12.184;2022-08-11T05:44:55;18.90;99.90
2893;DHT22;1456;51.840;12.184;2022-08-11T05:47:41;19.10;99.90
2893;DHT22;1456;51.840;12.184;2022-08-11T05:50:26;19.30;99.90
2893;DHT22;1456;51.840;12.184;2022-08-11T05:53:12;19.40;99.90
2893;DHT22;1456;51.840;12.184;2022-08-11T05:56:04;19.70;99.90
2893;DHT22;1456;51.840;12.184;2022-08-11T05:58:53;19.90;99.90
2893;DHT22;1456;51.840;12.184;2022-08-11T06:01:27;20.10;99.90
2893;DHT22;1456;51.840;12.184;2022-08-11T06:03:56;20.20;99.90
2893;DHT22;1456;51.840;12.184;2022-08-11T06:10:06;20.60;99.90
2893;DHT22;1456;51.840;12.184;2022-08-11T06:12:21;20.70;99.90
2893;DHT22;1456;51.840;12.184;2022-08-11T06:14:50;20.90;97.50
2893;DHT22;1456;51.840;12.184;2022-08-11T06:17:44;20.80;98.80
2893;DHT22;1456;51.840;12.184;2022-08-11T06:20:12;20.80;98.60
2893;DHT22;1456;51.840;12.184;2022-08-11T06:22:43;21.10;99.90
2893;DHT22;1456;51.840;12.184;2022-08-11T06:25:11;21.30;99.00
2893;DHT22;1456;51.840;12.184;2022-08-11T06:27:40;21.40;99.90
2893;DHT22;1456;51.840;12.184;2022-08-11T06:30:06;21.40;97.20
2893;DHT22;1456;51.840;12.184;2022-08-11T06:32:43;21.60;99.90
2893;DHT22;1456;51.840;12.184;2022-08-11T06:35:46;21.70;99.00
2893;DHT22;1456;51.840;12.184;2022-08-11T06:38:45;21.90;97.00
2893;DHT22;1456;51.840;12.184;2022-08-11T06:41:17;22.00;99.60
2893;DHT22;1456;51.840;12.184;2022-08-11T06:44:15;22.10;95.00
2893;DHT22;1456;51.840;12.184;2022-08-11T06:46:49;21.80;94.60
2893;DHT22;1456;51.840;12.184;2022-08-11T06:49:18;22.00;98.10
2893;DHT22;1456;51.840;12.184;2022-08-11T06:52:13;22.20;97.80
2893;DHT22;1456;51.840;12.184;2022-08-11T06:54:50;22.40;97.20
2893;DHT22;1456;51.840;12.184;2022-08-11T06:57:20;22.50;95.30
2893;DHT22;1456;51.840;12.184;2022-08-11T07:00:05;22.60;96.00
2893;DHT22;1456;51.840;12.184;2022-08-11T07:03:05;22.70;93.10
2893;DHT22;1456;51.840;12.184;2022-08-11T07:14:38;22.60;94.70
2893;DHT22;1456;51.840;12.184;2022-08-11T07:17:25;23.00;95.90
2893;DHT22;1456;51.840;12.184;2022-08-11T07:19:56;23.30;94.50
2893;DHT22;1456;51.840;12.184;2022-08-11T07:22:48;23.50;95.90
2893;DHT22;1456;51.840;12.184;2022-08-11T07:25:41;23.20;91.00
2893;DHT22;1456;51.840;12.184;2022-08-11T07:28:28;23.20;93.20
2893;DHT22;1456;51.840;12.184;2022-08-11T07:31:17;23.00;92.80
2893;DHT22;1456;51.840;12.184;2022-08-11T07:33:49;23.00;91.60
2893;DHT22;1456;51.840;12.184;2022-08-11T07:36:16;23.00;91.40
2893;DHT22;1456;51.840;12.184;2022-08-11T07:38:44;23.00;94.60
2893;DHT22;1456;51.840;12.184;2022-08-11T07:41:18;23.20;94.40
2893;DHT22;1456;51.840;12.184;2022-08-11T07:43:48;23.70;94.80
2893;DHT22;1456;51.840;12.184;2022-08-11T07:46:16;24.20;96.00
2893;DHT22;1456;51.840;12.184;2022-08-11T07:49:02;24.40;91.00
2893;DHT22;1456;51.840;12.184;2022-08-11T07:51:47;24.50;91.30
2893;DHT22;1456;51.840;12.184;2022-08-11T07:54:32;24.50;92.50
2893;DHT22;1456;51.840;12.184;2022-08-11T07:57:00;24.50;92.50
2893;DHT22;1456;51.840;12.184;2022-08-11T07:59:47;24.80;95.30
2893;DHT22;1456;51.840;12.184;2022-08-11T08:02:32;24.80;89.60
2893;DHT22;1456;51.840;12.184;2022-08-11T08:05:16;24.90;87.60
2893;DHT22;1456;51.840;12.184;2022-08-11T08:08:01;25.00;90.70
2893;DHT22;1456;51.840;12.184;2022-08-11T08:10:47;25.50;90.50
2893;DHT22;1456;51.840;12.184;2022-08-11T08:13:32;25.80;86.20
2893;DHT22;1456;51.840;12.184;2022-08-11T08:16:19;25.80;88.60
2893;DHT22;1456;51.840;12.184;2022-08-11T08:19:04;25.60;83.20
2893;DHT22;1456;51.840;12.184;2022-08-11T08:21:30;25.60;86.70
2893;DHT22;1456;51.840;12.184;2022-08-11T08:23:57;25.90;92.20
2893;DHT22;1456;51.840;12.184;2022-08-11T08:26:23;25.90;82.40
2893;DHT22;1456;51.840;12.184;2022-08-11T08:29:08;26.00;84.00
2893;DHT22;1456;51.840;12.184;2022-08-11T08:31:55;26.30;91.70
2893;DHT22;1456;51.840;12.184;2022-08-11T08:34:22;26.00;80.70
2893;DHT22;1456;51.840;12.184;2022-08-11T08:36:49;26.30;87.00
2893;DHT22;1456;51.840;12.184;2022-08-11T08:39:20;26.90;91.60
2893;DHT22;1456;51.840;12.184;2022-08-11T08:41:48;26.80;78.20
2893;DHT22;1456;51.840;12.184;2022-08-11T08:44:18;26.80;91.10
2893;DHT22;1456;51.840;12.184;2022-08-11T08:46:48;27.30;84.70
2893;DHT22;1456;51.840;12.184;2022-08-11T08:49:21;27.70;83.80
2893;DHT22;1456;51.840;12.184;2022-08-11T08:51:52;27.60;80.60
2893;DHT22;1456;51.840;12.184;2022-08-11T08:54:21;27.60;82.40
2893;DHT22;1456;51.840;12.184;2022-08-11T08:56:51;28.10;82.40
2893;DHT22;1456;51.840;12.184;2022-08-11T08:59:21;28.60;82.40
2893;DHT22;1456;51.840;12.184;2022-08-11T09:01:54;28.80;84.60
2893;DHT22;1456;51.840;12.184;2022-08-11T09:04:22;29.00;73.10
2893;DHT22;1456;51.840;12.184;2022-08-11T09:06:49;29.20;78.40
2893;DHT22;1456;51.840;12.184;2022-08-11T09:09:16;29.30;72.10
2893;DHT22;1456;51.840;12.184;2022-08-11T09:11:43;29.40;78.40
2893;DHT22;1456;51.840;12.184;2022-08-11T09:16:49;29.30;68.40
2893;DHT22;1456;51.840;12.184;2022-08-11T09:19:19;29.50;76.70
2893;DHT22;1456;51.840;12.184;2022-08-11T09:21:47;29.50;73.00
2893;DHT22;1456;51.840;12.184;2022-08-11T09:24:33;29.80;77.30
2893;DHT22;1456;51.840;12.184;2022-08-11T09:27:20;30.10;73.00
2893;DHT22;1456;51.840;12.184;2022-08-11T09:29:46;30.50;72.10
2893;DHT22;1456;51.840;12.184;2022-08-11T09:32:13;30.50;66.40
2893;DHT22;1456;51.840;12.184;2022-08-11T09:34:39;30.50;69.50
2893;DHT22;1456;51.840;12.184;2022-08-11T09:37:07;30.50;64.20
2893;DHT22;1456;51.840;12.184;2022-08-11T09:39:52;30.90;69.00
2893;DHT22;1456;51.840;12.184;2022-08-11T09:42:39;31.00;67.50
2893;DHT22;1456;51.840;12.184;2022-08-11T09:45:24;31.00;66.80
2893;DHT22;1456;51.840;12.184;2022-08-11T09:47:51;31.20;63.00
2893;DHT22;1456;51.840;12.184;2022-08-11T09:50:18;31.40;61.80
2893;DHT22;1456;51.840;12.184;2022-08-11T09:52:45;31.40;60.70
2893;DHT22;1456;51.840;12.184;2022-08-11T09:55:13;31.50;71.90
2893;DHT22;1456;51.840;12.184;2022-08-11T09:57:44;31.80;59.80
2893;DHT22;1456;51.840;12.184;2022-08-11T10:00:32;31.40;59.10
2893;DHT22;1456;51.840;12.184;2022-08-11T10:05:38;32.50;57.00
2893;DHT22;1456;51.840;12.184;2022-08-11T10:08:29;33.00;60.60
2893;DHT22;1456;51.840;12.184;2022-08-11T10:10:55;33.50;55.20
2893;DHT22;1456;51.840;12.184;2022-08-11T10:13:30;34.00;54.00
2893;DHT22;1456;51.840;12.184;2022-08-11T10:16:01;34.40;52.60
2893;DHT22;1456;51.840;12.184;2022-08-11T10:18:41;34.70;53.80
2893;DHT22;1456;51.840;12.184;2022-08-11T10:24:00;35.00;52.80
2893;DHT22;1456;51.840;12.184;2022-08-11T10:26:47;35.00;50.50
2893;DHT22;1456;51.840;12.184;2022-08-11T10:29:25;34.10;44.90
2893;DHT22;1456;51.840;12.184;2022-08-11T10:32:11;33.90;47.80
2893;DHT22;1456;51.840;12.184;2022-08-11T10:34:58;34.70;50.20
2893;DHT22;1456;51.840;12.184;2022-08-11T10:37:25;35.10;53.70
2893;DHT22;1456;51.840;12.184;2022-08-11T10:39:52;35.40;47.80
2893;DHT22;1456;51.840;12.184;2022-08-11T10:42:21;36.10;49.70
2893;DHT22;1456;51.840;12.184;2022-08-11T10:45:06;36.80;47.90
2893;DHT22;1456;51.840;12.184;2022-08-11T10:47:54;37.10;46.60
2893;DHT22;1456;51.840;12.184;2022-08-11T10:50:21;37.30;47.50
2893;DHT22;1456;51.840;12.184;2022-08-11T10:53:06;35.70;40.80
2893;DHT22;1456;51.840;12.184;2022-08-11T10:55:51;36.20;49.60
2893;DHT22;1456;51.840;12.184;2022-08-11T10:58:39;37.50;45.80
2893;DHT22;1456;51.840;12.184;2022-08-11T11:01:26;37.70;45.40
2893;DHT22;1456;51.840;12.184;2022-08-11T11:03:59;38.40;47.10
2893;DHT22;1456;51.840;12.184;2022-08-11T11:09:12;39.80;43.20
2893;DHT22;1456;51.840;12.184;2022-08-11T11:11:44;40.20;41.10
2893;DHT22;1456;51.840;12.184;2022-08-11T11:14:32;39.90;40.00
2893;DHT22;1456;51.840;12.184;2022-08-11T11:17:39;39.50;41.30
2893;DHT22;1456;51.840;12.184;2022-08-11T11:20:26;39.60;42.70
2893;DHT22;1456;51.840;12.184;2022-08-11T11:23:01;37.90;38.30
2893;DHT22;1456;51.840;12.184;2022-08-11T11:34:12;39.60;42.70
2893;DHT22;1456;51.840;12.184;2022-08-11T11:36:54;40.10;41.20
2893;DHT22;1456;51.840;12.184;2022-08-11T11:39:23;40.10;40.50
2893;DHT22;1456;51.840;12.184;2022-08-11T11:41:52;40.30;39.10
2893;DHT22;1456;51.840;12.184;2022-08-11T11:44:19;40.60;38.70
2893;DHT22;1456;51.840;12.184;2022-08-11T11:46:46;40.90;38.50
2893;DHT22;1456;51.840;12.184;2022-08-11T11:49:13;41.20;36.70
2893;DHT22;1456;51.840;12.184;2022-08-11T11:51:43;41.40;37.20
2893;DHT22;1456;51.840;12.184;2022-08-11T11:54:10;41.30;37.80
2893;DHT22;1456;51.840;12.184;2022-08-11T11:56:38;41.70;37.10
2893;DHT22;1456;51.840;12.184;2022-08-11T11:59:05;40.40;40.10
2893;DHT22;1456;51.840;12.184;2022-08-11T12:01:50;41.20;37.40
2893;DHT22;1456;51.840;12.184;2022-08-11T12:04:18;41.70;38.90
2893;DHT22;1456;51.840;12.184;2022-08-11T12:06:45;42.50;36.50
2893;DHT22;1456;51.840;12.184;2022-08-11T12:09:11;42.40;33.70
2893;DHT22;1456;51.840;12.184;2022-08-11T12:11:43;41.10;39.20
2893;DHT22;1456;51.840;12.184;2022-08-11T12:14:28;41.70;36.50
2893;DHT22;1456;51.840;12.184;2022-08-11T12:16:55;41.90;36.10
2893;DHT22;1456;51.840;12.184;2022-08-11T12:19:26;41.30;37.30
2893;DHT22;1456;51.840;12.184;2022-08-11T12:21:56;41.80;34.30
2893;DHT22;1456;51.840;12.184;2022-08-11T12:24:41;42.80;38.80
2893;DHT22;1456;51.840;12.184;2022-08-11T12:27:26;42.80;34.70
2893;DHT22;1456;51.840;12.184;2022-08-11T12:30:00;42.70;36.00
2893;DHT22;1456;51.840;12.184;2022-08-11T12:32:32;43.40;35.60
2893;DHT22;1456;51.840;12.184;2022-08-11T12:34:59;43.60;32.60
2893;DHT22;1456;51.840;12.184;2022-08-11T12:37:38;44.30;34.20
2893;DHT22;1456;51.840;12.184;2022-08-11T12:40:11;45.00;34.30
2893;DHT22;1456;51.840;12.184;2022-08-11T12:43:00;45.80;33.20
2893;DHT22;1456;51.840;12.184;2022-08-11T12:45:46;45.00;31.00
2893;DHT22;1456;51.840;12.184;2022-08-11T12:48:19;45.10;30.30
2893;DHT22;1456;51.840;12.184;2022-08-11T12:51:09;45.30;31.80
2893;DHT22;1456;51.840;12.184;2022-08-11T12:54:13;45.70;30.00
2893;DHT22;1456;51.840;12.184;2022-08-11T12:56:49;43.90;29.10
2893;DHT22;1456;51.840;12.184;2022-08-11T12:59:47;44.40;31.40
2893;DHT22;1456;51.840;12.184;2022-08-11T13:02:31;44.80;30.60
2893;DHT22;1456;51.840;12.184;2022-08-11T13:05:17;45.40;30.50
2893;DHT22;1456;51.840;12.184;2022-08-11T13:07:44;44.00;33.40
2893;DHT22;1456;51.840;12.184;2022-08-11T13:10:13;43.90;29.50
2893;DHT22;1456;51.840;12.184;2022-08-11T13:13:02;43.00;30.10
2893;DHT22;1456;51.840;12.184;2022-08-11T13:15:28;43.60;31.40
2893;DHT22;1456;51.840;12.184;2022-08-11T13:17:54;44.30;31.60
2893;DHT22;1456;51.840;12.184;2022-08-11T13:20:23;45.30;31.50
2893;DHT22;1456;51.840;12.184;2022-08-11T13:22:52;46.50;32.30
2893;DHT22;1456;51.840;12.184;2022-08-11T13:25:20;47.50;31.00
2893;DHT22;1456;51.840;12.184;2022-08-11T13:27:48;47.20;29.90
2893;DHT22;1456;51.840;12.184;2022-08-11T13:30:15;47.00;29.20
2893;DHT22;1456;51.840;12.184;2022-08-11T13:33:00;47.20;28.90
2893;DHT22;1456;51.840;12.184;2022-08-11T13:35:28;47.30;29.30
2893;DHT22;1456;51.840;12.184;2022-08-11T13:37:55;45.50;28.60
2893;DHT22;1456;51.840;12.184;2022-08-11T13:40:22;45.50;29.10
2893;DHT22;1456;51.840;12.184;2022-08-11T13:42:50;44.70;28.90
2893;DHT22;1456;51.840;12.184;2022-08-11T13:45:17;41.90;29.30
2893;DHT22;1456;51.840;12.184;2022-08-11T13:47:44;42.40;31.00
2893;DHT22;1456;51.840;12.184;2022-08-11T13:50:13;44.30;31.50
2893;DHT22;1456;51.840;12.184;2022-08-11T13:52:40;46.00;30.90
2893;DHT22;1456;51.840;12.184;2022-08-11T13:55:08;46.50;31.10
2893;DHT22;1456;51.840;12.184;2022-08-11T13:57:35;47.10;28.50
2893;DHT22;1456;51.840;12.184;2022-08-11T14:00:06;46.80;28.50
2893;DHT22;1456;51.840;12.184;2022-08-11T14:02:48;46.80;29.50
2893;DHT22;1456;51.840;12.184;2022-08-11T14:05:16;47.80;28.70
2893;DHT22;1456;51.840;12.184;2022-08-11T14:07:54;47.80;27.90
2893;DHT22;1456;51.840;12.184;2022-08-11T14:10:26;47.50;28.20
2893;DHT22;1456;51.840;12.184;2022-08-11T14:12:59;47.70;27.80
2893;DHT22;1456;51.840;12.184;2022-08-11T14:15:44;48.00;29.30
2893;DHT22;1456;51.840;12.184;2022-08-11T14:20:41;48.80;27.70
2893;DHT22;1456;51.840;12.184;2022-08-11T14:23:29;48.60;30.00
2893;DHT22;1456;51.840;12.184;2022-08-11T14:25:56;48.90;27.60
2893;DHT22;1456;51.840;12.184;2022-08-11T14:28:41;46.80;27.30
2893;DHT22;1456;51.840;12.184;2022-08-11T14:31:07;46.40;27.40
2893;DHT22;1456;51.840;12.184;2022-08-11T14:33:35;46.60;27.90
2893;DHT22;1456;51.840;12.184;2022-08-11T14:36:04;46.80;28.10
2893;DHT22;1456;51.840;12.184;2022-08-11T14:38:33;47.60;28.50
2893;DHT22;1456;51.840;12.184;2022-08-11T14:41:00;46.00;28.00
2893;DHT22;1456;51.840;12.184;2022-08-11T14:43:45;46.20;28.50
2893;DHT22;1456;51.840;12.184;2022-08-11T14:46:30;47.10;28.40
2893;DHT22;1456;51.840;12.184;2022-08-11T14:49:16;48.00;28.60
2893;DHT22;1456;51.840;12.184;2022-08-11T14:51:43;48.20;28.30
2893;DHT22;1456;51.840;12.184;2022-08-11T14:54:10;49.10;27.90
2893;DHT22;1456;51.840;12.184;2022-08-11T14:56:54;49.30;27.30
2893;DHT22;1456;51.840;12.184;2022-08-11T14:59:22;49.40;26.20
2893;DHT22;1456;51.840;12.184;2022-08-11T15:01:48;49.70;27.30
2893;DHT22;1456;51.840;12.184;2022-08-11T15:04:33;49.20;27.40
2893;DHT22;1456;51.840;12.184;2022-08-11T15:06:59;48.00;26.90
2893;DHT22;1456;51.840;12.184;2022-08-11T15:09:25;47.90;27.10
2893;DHT22;1456;51.840;12.184;2022-08-11T15:11:51;48.00;27.20
2893;DHT22;1456;51.840;12.184;2022-08-11T15:14:43;48.70;27.20
2893;DHT22;1456;51.840;12.184;2022-08-11T15:17:41;48.80;26.40
2893;DHT22;1456;51.840;12.184;2022-08-11T15:20:15;47.70;26.60
2893;DHT22;1456;51.840;12.184;2022-08-11T15:23:01;47.10;27.10
2893;DHT22;1456;51.840;12.184;2022-08-11T15:25:50;46.80;27.10
2893;DHT22;1456;51.840;12.184;2022-08-11T15:28:17;47.30;27.10
2893;DHT22;1456;51.840;12.184;2022-08-11T15:31:03;47.40;26.60
2893;DHT22;1456;51.840;12.184;2022-08-11T15:34:09;47.70;26.90
2893;DHT22;1456;51.840;12.184;2022-08-11T15:36:58;47.90;27.80
2893;DHT22;1456;51.840;12.184;2022-08-11T15:42:56;45.70;27.40
2893;DHT22;1456;51.840;12.184;2022-08-11T15:45:40;42.90;27.50
2893;DHT22;1456;51.840;12.184;2022-08-11T15:51:05;38.70;30.50
2893;DHT22;1456;51.840;12.184;2022-08-11T15:53:41;38.10;31.50
2893;DHT22;1456;51.840;12.184;2022-08-11T15:56:09;37.00;30.20
2893;DHT22;1456;51.840;12.184;2022-08-11T15:58:40;36.20;31.40
2893;DHT22;1456;51.840;12.184;2022-08-11T16:01:26;35.50;30.40
2893;DHT22;1456;51.840;12.184;2022-08-11T16:04:21;35.00;31.80
2893;DHT22;1456;51.840;12.184;2022-08-11T16:07:05;35.10;34.40
2893;DHT22;1456;51.840;12.184;2022-08-11T16:09:49;34.90;32.70
2893;DHT22;1456;51.840;12.184;2022-08-11T16:12:19;34.40;33.00
2893;DHT22;1456;51.840;12.184;2022-08-11T16:14:50;34.00;33.40
2893;DHT22;1456;51.840;12.184;2022-08-11T16:17:47;33.80;33.20
2893;DHT22;1456;51.840;12.184;2022-08-11T16:20:18;33.40;35.30
2893;DHT22;1456;51.840;12.184;2022-08-11T16:22:46;33.20;33.50
2893;DHT22;1456;51.840;12.184;2022-08-11T16:25:23;32.90;35.00
2893;DHT22;1456;51.840;12.184;2022-08-11T16:27:58;32.70;34.90
2893;DHT22;1456;51.840;12.184;2022-08-11T16:30:39;32.90;34.50
2893;DHT22;1456;51.840;12.184;2022-08-11T16:33:07;32.80;34.30
2893;DHT22;1456;51.840;12.184;2022-08-11T16:35:36;32.50;34.90
2893;DHT22;1456;51.840;12.184;2022-08-11T16:38:24;32.20;35.40
2893;DHT22;1456;51.840;12.184;2022-08-11T16:41:02;32.00;34.50
2893;DHT22;1456;51.840;12.184;2022-08-11T16:43:31;31.90;33.60
2893;DHT22;1456;51.840;12.184;2022-08-11T16:46:18;31.90;33.40
2893;DHT22;1456;51.840;12.184;2022-08-11T16:49:08;32.10;36.00
2893;DHT22;1456;51.840;12.184;2022-08-11T16:51:35;32.10;34.80
2893;DHT22;1456;51.840;12.184;2022-08-11T16:54:01;32.10;34.90
2893;DHT22;1456;51.840;12.184;2022-08-11T16:56:31;32.30;34.90
2893;DHT22;1456;51.840;12.184;2022-08-11T16:59:00;33.10;35.40
2893;DHT22;1456;51.840;12.184;2022-08-11T17:01:57;34.00;33.60
2893;DHT22;1456;51.840;12.184;2022-08-11T17:04:37;34.30;33.00
2893;DHT22;1456;51.840;12.184;2022-08-11T17:07:23;34.30;34.00
2893;DHT22;1456;51.840;12.184;2022-08-11T17:10:13;34.20;34.90
2893;DHT22;1456;51.840;12.184;2022-08-11T17:13:01;33.80;34.40
2893;DHT22;1456;51.840;12.184;2022-08-11T17:15:43;34.70;34.50
2893;DHT22;1456;51.840;12.184;2022-08-11T17:18:29;35.80;34.30
2893;DHT22;1456;51.840;12.184;2022-08-11T17:21:06;37.20;33.50
2893;DHT22;1456;51.840;12.184;2022-08-11T17:23:34;38.10;33.10
2893;DHT22;1456;51.840;12.184;2022-08-11T17:31:55;38.60;30.40
2893;DHT22;1456;51.840;12.184;2022-08-11T17:34:42;38.10;32.00
2893;DHT22;1456;51.840;12.184;2022-08-11T17:37:29;38.40;32.80
2893;DHT22;1456;51.840;12.184;2022-08-11T17:39:58;38.60;31.00
2893;DHT22;1456;51.840;12.184;2022-08-11T17:42:27;37.60;30.00
2893;DHT22;1456;51.840;12.184;2022-08-11T17:45:13;37.30;33.70
2893;DHT22;1456;51.840;12.184;2022-08-11T17:48:00;36.70;34.20
2893;DHT22;1456;51.840;12.184;2022-08-11T17:50:46;35.90;32.00
2893;DHT22;1456;51.840;12.184;2022-08-11T17:53:14;35.10;34.10
2893;DHT22;1456;51.840;12.184;2022-08-11T17:56:01;33.90;33.50
2893;DHT22;1456;51.840;12.184;2022-08-11T17:58:47;33.20;37.30
2893;DHT22;1456;51.840;12.184;2022-08-11T18:01:34;32.20;35.40
2893;DHT22;1456;51.840;12.184;2022-08-11T18:04:05;31.60;38.60
2893;DHT22;1456;51.840;12.184;2022-08-11T18:06:32;31.20;37.80
2893;DHT22;1456;51.840;12.184;2022-08-11T18:09:00;31.00;40.70
2893;DHT22;1456;51.840;12.184;2022-08-11T18:11:46;30.70;37.70
2893;DHT22;1456;51.840;12.184;2022-08-11T18:14:34;30.30;40.00
2893;DHT22;1456;51.840;12.184;2022-08-11T18:17:19;29.90;39.90
2893;DHT22;1456;51.840;12.184;2022-08-11T18:20:04;29.60;40.70
2893;DHT22;1456;51.840;12.184;2022-08-11T18:22:51;29.30;42.80
2893;DHT22;1456;51.840;12.184;2022-08-11T18:25:40;28.90;43.50
2893;DHT22;1456;51.840;12.184;2022-08-11T18:28:29;28.60;45.60
2893;DHT22;1456;51.840;12.184;2022-08-11T18:31:17;28.40;44.50
2893;DHT22;1456;51.840;12.184;2022-08-11T18:34:06;28.10;46.30
2893;DHT22;1456;51.840;12.184;2022-08-11T18:39:46;27.70;46.90
2893;DHT22;1456;51.840;12.184;2022-08-11T18:42:31;27.50;53.50
2893;DHT22;1456;51.840;12.184;2022-08-11T18:45:16;27.30;55.80
2893;DHT22;1456;51.840;12.184;2022-08-11T18:48:09;27.10;51.40
2893;DHT22;1456;51.840;12.184;2022-08-11T18:50:57;26.90;56.60
2893;DHT22;1456;51.840;12.184;2022-08-11T18:53:44;26.70;55.70
2893;DHT22;1456;51.840;12.184;2022-08-11T18:56:30;26.60;60.60
2893;DHT22;1456;51.840;12.184;2022-08-11T18:59:17;26.40;55.30
2893;DHT22;1456;51.840;12.184;2022-08-11T19:02:03;26.20;60.20
2893;DHT22;1456;51.840;12.184;2022-08-11T19:04:49;26.10;55.70
2893;DHT22;1456;51.840;12.184;2022-08-11T19:07:34;26.00;54.70
2893;DHT22;1456;51.840;12.184;2022-08-11T19:10:20;25.80;53.30
2893;DHT22;1456;51.840;12.184;2022-08-11T19:13:06;25.80;52.90
2893;DHT22;1456;51.840;12.184;2022-08-11T19:15:53;25.70;53.90
2893;DHT22;1456;51.840;12.184;2022-08-11T19:18:38;25.50;55.80
2893;DHT22;1456;51.840;12.184;2022-08-11T19:21:25;25.50;54.20
2893;DHT22;1456;51.840;12.184;2022-08-11T19:24:12;25.40;53.60
2893;DHT22;1456;51.840;12.184;2022-08-11T19:26:57;25.20;52.10
2893;DHT22;1456;51.840;12.184;2022-08-11T19:29:42;25.20;52.60
2893;DHT22;1456;51.840;12.184;2022-08-11T19:32:28;25.10;53.70
2893;DHT22;1456;51.840;12.184;2022-08-11T19:35:14;25.00;53.70
2893;DHT22;1456;51.840;12.184;2022-08-11T19:37:59;24.90;52.10
2893;DHT22;1456;51.840;12.184;2022-08-11T19:40:44;24.80;52.80
2893;DHT22;1456;51.840;12.184;2022-08-11T19:43:30;24.80;53.90
2893;DHT22;1456;51.840;12.184;2022-08-11T19:46:17;24.70;53.40
2893;DHT22;1456;51.840;12.184;2022-08-11T19:49:03;24.60;53.30
2893;DHT22;1456;51.840;12.184;2022-08-11T19:51:49;24.60;53.00
2893;DHT22;1456;51.840;12.184;2022-08-11T19:54:35;24.50;52.60
2893;DHT22;1456;51.840;12.184;2022-08-11T19:57:21;24.40;52.20
2893;DHT22;1456;51.840;12.184;2022-08-11T20:00:26;24.30;54.80
2893;DHT22;1456;51.840;12.184;2022-08-11T20:03:12;24.20;51.60
2893;DHT22;1456;51.840;12.184;2022-08-11T20:05:59;24.20;54.10
2893;DHT22;1456;51.840;12.184;2022-08-11T20:08:46;24.10;52.80
2893;DHT22;1456;51.840;12.184;2022-08-11T20:11:40;24.00;53.20
2893;DHT22;1456;51.840;12.184;2022-08-11T20:14:27;23.90;52.20
2893;DHT22;1456;51.840;12.184;2022-08-11T20:17:13;23.80;53.60
2893;DHT22;1456;51.840;12.184;2022-08-11T20:20:02;23.70;55.10
2893;DHT22;1456;51.840;12.184;2022-08-11T20:22:48;23.70;53.60
2893;DHT22;1456;51.840;12.184;2022-08-11T20:25:34;23.50;55.00
2893;DHT22;1456;51.840;12.184;2022-08-11T20:28:19;23.40;59.00
2893;DHT22;1456;51.840;12.184;2022-08-11T20:31:05;23.30;58.30
2893;DHT22;1456;51.840;12.184;2022-08-11T20:33:50;23.20;58.90
2893;DHT22;1456;51.840;12.184;2022-08-11T20:36:35;23.10;59.50
2893;DHT22;1456;51.840;12.184;2022-08-11T20:39:20;22.90;65.60
2893;DHT22;1456;51.840;12.184;2022-08-11T20:42:06;22.70;60.90
2893;DHT22;1456;51.840;12.184;2022-08-11T20:44:51;22.60;66.50
2893;DHT22;1456;51.840;12.184;2022-08-11T20:47:37;22.50;66.40
2893;DHT22;1456;51.840;12.184;2022-08-11T20:50:23;22.30;67.30
2893;DHT22;1456;51.840;12.184;2022-08-11T20:53:09;22.20;67.60
2893;DHT22;1456;51.840;12.184;2022-08-11T20:55:57;22.10;68.60
2893;DHT22;1456;51.840;12.184;2022-08-11T20:58:43;21.90;70.00
2893;DHT22;1456;51.840;12.184;2022-08-11T21:01:27;21.80;71.30
2893;DHT22;1456;51.840;12.184;2022-08-11T21:04:13;21.80;68.50
2893;DHT22;1456;51.840;12.184;2022-08-11T21:07:02;21.70;67.10